Date,TemperatureHighF,TemperatureAvgF,TemperatureLowF,DewpointHighF,DewpointAvgF,DewpointLowF,HumidityHigh,HumidityAvg,HumidityLow,PressureMaxIn,PressureMinIn,WindSpeedMaxMPH,WindSpeedAvgMPH,GustSpeedMaxMPH,PrecipitationSumIn
2013-12-1,55.9,49.9,43.0,52.0,47.7,41.7,97,92,86,30.10,29.87,4,0,0,0.00
2013-12-2,59.3,51.7,46.7,50.2,48.0,45.0,95,88,64,29.87,29.64,10,1,11,0.00
2013-12-3,62.2,52.3,45.1,54.3,49.5,44.0,98,91,73,29.64,29.48,10,2,13,0.00
2013-12-4,50.8,42.8,31.2,48.7,38.4,23.6,96,85,73,30.04,29.47,14,2,16,0.00
2013-12-5,31.5,26.1,22.3,24.0,17.5,13.9,86,70,56,30.34,30.03,9,2,13,0.00
2013-12-6,24.7,21.2,16.7,18.9,14.5,6.2,90,76,58,30.63,30.29,9,2,11,0.00
2013-12-7,18.9,13.8,11.5,9.0,6.1,5.1,75,71,63,30.70,30.62,7,1,8,0.00
2013-12-8,31.0,30.1,27.4,28.2,26.7,24.5,94,87,82,30.24,30.02,12,3,13,0.00
2013-12-9,29.1,24.9,20.9,24.7,19.1,16.0,90,78,66,30.44,30.21,7,1,10,0.00
2013-12-10,37.4,26.2,15.0,23.1,18.1,12.6,91,72,54,30.49,30.27,9,2,12,0.12
2013-12-11,40.2,30.7,21.5,28.4,22.6,18.9,92,73,56,30.64,30.29,10,1,12,0.09
2013-12-12,42.6,32.0,19.0,29.7,23.8,16.0,89,72,56,30.64,30.24,15,3,16,0.03
2013-12-13,41.3,39.0,36.3,39.1,34.8,29.2,96,85,70,30.24,29.81,15,4,18,0.46
2013-12-14,41.0,36.0,26.9,39.9,31.5,24.6,97,84,64,30.28,29.84,13,2,14,0.01
2013-12-15,60.7,41.2,24.0,35.9,28.6,22.3,94,66,31,30.29,30.11,13,2,15,0.00
2013-12-16,70.7,51.8,38.5,36.4,32.3,29.5,73,50,22,30.14,30.03,10,2,13,0.00
2013-12-17,62.4,48.2,37.8,36.8,33.1,30.8,79,59,31,30.30,30.12,8,1,9,0.00
2013-12-18,47.4,43.1,35.7,34.6,32.2,30.8,82,65,61,30.18,30.15,10,3,12,0.00
2013-12-19,64.2,63.0,60.9,55.4,54.1,53.3,77,73,69,29.69,29.63,19,7,22,0.00
2013-12-20,60.4,36.1,31.0,56.8,30.5,24.9,88,80,74,29.96,29.71,14,2,15,0.00
2013-12-21,33.5,33.0,32.6,32.2,31.6,31.1,95,94,94,29.75,29.51,0,0,0,0.01
2013-12-22,31.3,29.7,28.4,29.5,26.9,25.0,93,89,86,30.32,29.93,0,0,0,0.00
2013-12-23,30.7,27.1,24.5,25.9,23.6,20.9,91,87,81,30.62,30.42,0,0,0,0.00
2013-12-24,18.1,17.6,17.1,15.9,15.3,14.7,93,91,89,30.57,30.53,0,0,0,0.00
2013-12-26,51.4,35.1,24.2,36.3,29.9,23.0,96,83,55,30.42,30.31,11,2,13,0.01
2013-12-27,61.1,45.0,33.2,34.3,30.0,27.4,80,59,31,30.41,30.30,9,1,11,0.00
2013-12-28,58.1,45.8,36.0,40.1,35.3,30.5,82,68,45,30.21,29.91,11,2,12,0.00
2013-12-29,44.4,35.4,28.0,39.5,28.2,18.8,84,75,68,30.25,29.96,12,3,14,0.00
2013-12-30,40.1,28.0,16.8,19.3,13.4,6.8,70,55,40,30.36,30.27,8,1,9,0.00
2013-12-31,56.4,36.3,24.7,29.1,21.9,18.5,79,59,25,30.39,30.17,10,2,19,0.00